Time;durP1;ratioP1;P1;durP2;ratioP2;P2;SDS_P1;SDS_P2;PMS_P1;PMS_P2;Temp;Humidity;BMP_temperature;BMP_pressure;BME280_temperature;BME280_humidity;BME280_pressure;Samples;Min_cycle;Max_cycle;Signal;HPM_P1;HPM_P2
2022/11/16 00:01:12;;;;;;;;;;;19.70;35.80;;;;;;6124804;23;19901;-69
2022/11/16 00:03:39;;;;;;;;;;;19.80;36.50;;;;;;6124482;23;19913;-68
2022/11/16 00:06:06;;;;;;;;;;;19.90;36.90;;;;;;6124948;23;19920;-69
2022/11/16 00:08:34;;;;;;;;;;;19.90;36.00;;;;;;6099194;23;19912;-69
2022/11/16 00:11:07;;;;;;;;;;;19.80;35.90;;;;;;6098170;23;19905;-69
2022/11/16 00:13:34;;;;;;;;;;;19.70;36.00;;;;;;6099135;23;19905;-69
2022/11/16 00:16:01;;;;;;;;;;;19.80;35.80;;;;;;6099088;23;19905;-69
2022/11/16 00:18:28;;;;;;;;;;;19.80;35.60;;;;;;6098258;23;20332;-69
2022/11/16 00:20:54;;;;;;;;;;;20.00;36.20;;;;;;6124597;23;19976;-69
2022/11/16 00:23:21;;;;;;;;;;;20.00;36.40;;;;;;6124486;23;20311;-69
2022/11/16 00:25:48;;;;;;;;;;;20.00;36.00;;;;;;6124917;23;20244;-69
2022/11/16 00:28:15;;;;;;;;;;;20.10;36.70;;;;;;6124618;23;19909;-69
2022/11/16 00:30:41;;;;;;;;;;;20.10;35.50;;;;;;6099185;23;19941;-69
2022/11/16 00:33:09;;;;;;;;;;;20.10;36.70;;;;;;6098692;23;19916;-69
2022/11/16 00:35:39;;;;;;;;;;;19.80;35.10;;;;;;6124356;23;19905;-69
2022/11/16 00:38:05;;;;;;;;;;;19.70;35.00;;;;;;6122962;23;19968;-69
2022/11/16 00:40:32;;;;;;;;;;;19.70;35.80;;;;;;6124307;23;19937;-69
2022/11/16 00:42:59;;;;;;;;;;;19.70;34.60;;;;;;6124438;23;19905;-69
2022/11/16 00:45:26;;;;;;;;;;;19.80;34.70;;;;;;6122583;23;19923;-69
2022/11/16 00:47:52;;;;;;;;;;;19.90;35.70;;;;;;6123816;23;19905;-69
2022/11/16 00:50:19;;;;;;;;;;;20.00;35.10;;;;;;6121505;23;20347;-68
2022/11/16 00:52:46;;;;;;;;;;;20.00;34.80;;;;;;6120001;23;19932;-65
2022/11/16 00:55:12;;;;;;;;;;;19.90;36.40;;;;;;6121003;23;19916;-67
2022/11/16 00:57:39;;;;;;;;;;;19.80;36.60;;;;;;6121118;23;19913;-66
2022/11/16 01:00:07;;;;;;;;;;;19.70;36.90;;;;;;6120781;23;19987;-66
2022/11/16 01:02:34;;;;;;;;;;;19.50;36.00;;;;;;6121090;23;19912;-66
2022/11/16 01:05:01;;;;;;;;;;;19.30;35.40;;;;;;6120734;23;19948;-66
2022/11/16 01:07:28;;;;;;;;;;;19.30;35.90;;;;;;6120398;23;19995;-65
2022/11/16 01:09:54;;;;;;;;;;;19.50;36.40;;;;;;6094430;23;19909;-67
2022/11/16 01:12:21;;;;;;;;;;;19.40;35.30;;;;;;6118427;23;20249;-67
2022/11/16 01:14:48;;;;;;;;;;;19.40;36.00;;;;;;6120138;23;19943;-67
2022/11/16 01:17:14;;;;;;;;;;;19.40;35.40;;;;;;6121374;23;19913;-67
2022/11/16 01:19:41;;;;;;;;;;;19.40;35.40;;;;;;6120751;23;19912;-67
2022/11/16 01:22:07;;;;;;;;;;;19.50;36.10;;;;;;6095553;23;20308;-70
2022/11/16 01:24:34;;;;;;;;;;;19.50;36.50;;;;;;6118638;23;19947;-65
2022/11/16 01:27:01;;;;;;;;;;;19.50;35.70;;;;;;6119497;23;19909;-66
2022/11/16 01:29:28;;;;;;;;;;;19.50;36.00;;;;;;6118873;23;19921;-66
2022/11/16 01:31:55;;;;;;;;;;;19.60;36.30;;;;;;6119542;23;20341;-66
2022/11/16 01:34:21;;;;;;;;;;;19.70;36.90;;;;;;6119828;23;19912;-66
2022/11/16 01:36:48;;;;;;;;;;;19.70;35.10;;;;;;6119489;23;19909;-66
2022/11/16 01:39:15;;;;;;;;;;;19.80;34.60;;;;;;6119771;23;19909;-66
2022/11/16 01:41:42;;;;;;;;;;;19.80;34.30;;;;;;6094577;23;20316;-66
2022/11/16 01:44:14;;;;;;;;;;;19.80;34.20;;;;;;6121964;23;20329;-65
2022/11/16 01:46:41;;;;;;;;;;;19.70;32.30;;;;;;6123149;23;19912;-66
2022/11/16 01:49:09;;;;;;;;;;;19.50;31.50;;;;;;6123187;23;19905;-66
2022/11/16 01:51:36;;;;;;;;;;;19.40;33.00;;;;;;6098508;23;19905;-66
2022/11/16 01:54:04;;;;;;;;;;;19.50;33.20;;;;;;6123595;23;20400;-66
2022/11/16 01:56:31;;;;;;;;;;;19.70;33.20;;;;;;6124633;23;19913;-66
2022/11/16 01:58:58;;;;;;;;;;;19.70;34.70;;;;;;6098294;23;19947;-66
2022/11/16 02:01:24;;;;;;;;;;;19.70;32.10;;;;;;6098277;23;19932;-66
2022/11/16 02:03:51;;;;;;;;;;;19.50;31.50;;;;;;6125649;23;19920;-66
2022/11/16 02:06:27;;;;;;;;;;;19.40;31.70;;;;;;6099627;23;20312;-66
2022/11/16 02:12:08;;;;;;;;;;;19.40;43.60;;;;;;6124303;23;19912;-66
2022/11/16 02:14:53;;;;;;;;;;;19.40;45.40;;;;;;6098854;23;19916;-66
2022/11/16 02:17:38;;;;;;;;;;;19.30;45.80;;;;;;6123530;23;19908;-66
2022/11/16 02:20:15;;;;;;;;;;;19.10;46.00;;;;;;6123943;23;20331;-66
2022/11/16 02:22:59;;;;;;;;;;;19.00;45.50;;;;;;6099370;23;20352;-66
2022/11/16 02:25:46;;;;;;;;;;;19.00;45.50;;;;;;6125046;23;19963;-66
2022/11/16 02:28:16;;;;;;;;;;;19.00;45.90;;;;;;6104733;23;19916;-66
2022/11/16 02:30:43;;;;;;;;;;;18.90;43.80;;;;;;6125037;23;20277;-66
2022/11/16 02:33:11;;;;;;;;;;;18.80;43.20;;;;;;6098871;23;19913;-66
2022/11/16 02:35:46;;;;;;;;;;;18.80;43.90;;;;;;6099257;23;20376;-65
2022/11/16 02:38:19;;;;;;;;;;;18.80;46.50;;;;;;6097921;23;19909;-65
2022/11/16 02:40:47;;;;;;;;;;;18.90;47.30;;;;;;6124073;23;19905;-65
2022/11/16 02:43:16;;;;;;;;;;;18.90;47.40;;;;;;6098441;23;20324;-67
2022/11/16 02:45:43;;;;;;;;;;;18.80;47.40;;;;;;6125497;23;19913;-65
2022/11/16 02:48:14;;;;;;;;;;;18.40;51.10;;;;;;6099125;23;19940;-65
2022/11/16 02:50:41;;;;;;;;;;;18.10;51.50;;;;;;6124978;23;19909;-65
2022/11/16 02:53:07;;;;;;;;;;;17.80;52.80;;;;;;6099615;23;20022;-70
2022/11/16 02:55:34;;;;;;;;;;;17.70;52.10;;;;;;6125291;23;19984;-67
2022/11/16 02:58:01;;;;;;;;;;;17.60;53.10;;;;;;6124131;23;19940;-67
2022/11/16 03:00:48;;;;;;;;;;;17.50;54.20;;;;;;6125874;23;19911;-67
2022/11/16 03:03:33;;;;;;;;;;;17.40;54.50;;;;;;6105570;23;20375;-67
2022/11/16 03:06:26;;;;;;;;;;;17.50;54.00;;;;;;6125708;23;19913;-67
2022/11/16 03:09:02;;;;;;;;;;;17.50;56.30;;;;;;6118513;23;20014;-69
2022/11/16 03:14:15;;;;;;;;;;;16.30;70.80;;;;;;6103214;23;19964;-69
2022/11/16 03:16:45;;;;;;;;;;;15.00;75.50;;;;;;6125067;23;20355;-68
2022/11/16 03:19:13;;;;;;;;;;;14.10;79.90;;;;;;6126127;23;19905;-67
2022/11/16 03:21:44;;;;;;;;;;;13.70;81.50;;;;;;6099771;23;19913;-68
2022/11/16 03:24:11;;;;;;;;;;;13.40;81.30;;;;;;6099708;23;19921;-68
2022/11/16 03:26:47;;;;;;;;;;;13.40;83.10;;;;;;6100073;23;19909;-68
2022/11/16 03:29:15;;;;;;;;;;;13.60;84.70;;;;;;6099192;23;20280;-68
2022/11/16 03:31:44;;;;;;;;;;;13.70;84.60;;;;;;6098682;23;19929;-68
2022/11/16 03:34:11;;;;;;;;;;;13.80;82.40;;;;;;6125798;23;19980;-67
2022/11/16 03:36:39;;;;;;;;;;;14.00;81.80;;;;;;6100024;23;20403;-67
2022/11/16 03:39:08;;;;;;;;;;;14.30;81.70;;;;;;6100132;23;19913;-67
2022/11/16 03:41:35;;;;;;;;;;;14.50;78.70;;;;;;6099951;23;19909;-67
2022/11/16 03:44:01;;;;;;;;;;;14.70;75.10;;;;;;6100050;23;19932;-67
2022/11/16 03:46:28;;;;;;;;;;;14.90;74.20;;;;;;6124868;23;19913;-67
2022/11/16 03:48:58;;;;;;;;;;;15.00;72.20;;;;;;6123911;23;19956;-67
2022/11/16 03:51:24;;;;;;;;;;;15.10;68.70;;;;;;6123722;23;19909;-67
2022/11/16 03:53:51;;;;;;;;;;;15.20;66.50;;;;;;6098497;23;19909;-68
2022/11/16 03:56:17;;;;;;;;;;;15.20;67.20;;;;;;6124336;23;19905;-67
2022/11/16 03:58:44;;;;;;;;;;;15.40;67.30;;;;;;6125171;23;19936;-66
2022/11/16 04:01:10;;;;;;;;;;;15.50;66.00;;;;;;6099671;23;20217;-67
2022/11/16 04:03:37;;;;;;;;;;;15.60;64.30;;;;;;6124877;23;19911;-70
2022/11/16 10:06:49;;;;;;;;;;;14.80;58.80;;;;;;6091423;23;19925;-72
2022/11/16 10:09:16;;;;;;;;;;;14.80;60.20;;;;;;6090927;23;20401;-69
2022/11/16 10:12:01;;;;;;;;;;;14.70;60.70;;;;;;6090724;23;20170;-69
2022/11/16 10:14:44;;;;;;;;;;;14.70;60.50;;;;;;6089874;23;20289;-81
2022/11/16 10:17:19;;;;;;;;;;;14.60;61.10;;;;;;6092154;23;19909;-77
2022/11/16 10:20:01;;;;;;;;;;;14.60;61.60;;;;;;6067098;23;20384;-77
2022/11/16 10:22:43;;;;;;;;;;;14.50;62.10;;;;;;6091751;23;19945;-73
2022/11/16 10:25:29;;;;;;;;;;;14.50;62.20;;;;;;6093600;23;19976;-74
2022/11/16 10:28:14;;;;;;;;;;;14.50;61.90;;;;;;6068634;23;20355;-74
2022/11/16 10:31:10;;;;;;;;;;;14.50;61.60;;;;;;6093579;23;20078;-73
2022/11/16 10:33:37;;;;;;;;;;;14.50;61.80;;;;;;6062596;23;19912;-74
2022/11/16 10:36:07;;;;;;;;;;;14.50;61.40;;;;;;6094346;23;20241;-77
2022/11/16 10:38:34;;;;;;;;;;;14.50;62.00;;;;;;6066623;23;19920;-73
2022/11/16 10:41:02;;;;;;;;;;;14.50;62.20;;;;;;6093506;23;19906;-74
2022/11/16 10:43:32;;;;;;;;;;;14.40;62.30;;;;;;6068139;23;19972;-76
2022/11/16 10:46:11;;;;;;;;;;;14.40;62.20;;;;;;6093301;23;19923;-75
2022/11/16 10:48:43;;;;;;;;;;;14.40;62.00;;;;;;6094103;23;19905;-73
2022/11/16 10:51:09;;;;;;;;;;;14.40;62.50;;;;;;6093579;23;19905;-74
2022/11/16 10:53:37;;;;;;;;;;;14.40;62.20;;;;;;6093483;23;19912;-77
2022/11/16 10:56:13;;;;;;;;;;;14.30;62.50;;;;;;6094046;23;19992;-72
2022/11/16 10:58:49;;;;;;;;;;;14.30;62.60;;;;;;6093781;23;19909;-73
2022/11/16 11:01:29;;;;;;;;;;;14.30;62.70;;;;;;6093139;23;19964;-73
2022/11/16 11:03:56;;;;;;;;;;;14.30;62.70;;;;;;6091726;23;19917;-76
2022/11/16 11:06:24;;;;;;;;;;;14.30;62.60;;;;;;6084525;23;19917;-72
2022/11/16 11:08:51;;;;;;;;;;;14.30;62.30;;;;;;6091179;23;19920;-73
2022/11/16 11:14:10;;;;;;;;;;;14.20;62.40;;;;;;6091776;23;20297;-75
2022/11/16 11:16:37;;;;;;;;;;;14.20;62.60;;;;;;6093541;23;19913;-73
2022/11/16 11:19:22;;;;;;;;;;;14.20;62.90;;;;;;6091903;23;19909;-75
2022/11/16 11:21:48;;;;;;;;;;;14.20;62.90;;;;;;6093287;23;19920;-74
2022/11/16 11:24:16;;;;;;;;;;;14.20;62.50;;;;;;6093910;23;19925;-73
2022/11/16 11:26:42;;;;;;;;;;;14.20;62.80;;;;;;6093569;23;20329;-73
2022/11/16 11:29:16;;;;;;;;;;;14.20;62.70;;;;;;6092910;23;19910;-73
2022/11/16 11:31:45;;;;;;;;;;;14.20;62.80;;;;;;6091859;23;19937;-73
2022/11/16 13:20:22;;;;;;;;;;;13.50;64.90;;;;;;6116559;23;19923;-75
2022/11/16 13:22:56;;;;;;;;;;;13.50;65.10;;;;;;6095469;23;20289;-75
2022/11/16 13:25:24;;;;;;;;;;;13.50;65.60;;;;;;6095264;23;20396;-75
2022/11/16 13:27:53;;;;;;;;;;;13.50;65.90;;;;;;6096201;23;19909;-75
2022/11/16 13:30:20;;;;;;;;;;;13.50;65.70;;;;;;6095764;23;19912;-75
2022/11/16 13:32:59;;;;;;;;;;;13.40;66.20;;;;;;6069517;23;19956;-74
2022/11/16 13:35:26;;;;;;;;;;;13.40;65.50;;;;;;6095188;23;19910;-75
2022/11/16 13:37:52;;;;;;;;;;;13.40;65.60;;;;;;6070539;23;19906;-74
2022/11/16 13:40:20;;;;;;;;;;;13.50;65.50;;;;;;6069939;23;19909;-75
2022/11/16 13:43:01;;;;;;;;;;;13.40;65.70;;;;;;6095384;23;20380;-75
2022/11/16 13:45:51;;;;;;;;;;;13.40;66.90;;;;;;6095338;23;20281;-75
2022/11/16 13:48:18;;;;;;;;;;;13.40;66.70;;;;;;6058945;23;19913;-74
2022/11/16 13:51:07;;;;;;;;;;;13.30;66.70;;;;;;6095582;23;19996;-75
2022/11/16 13:53:34;;;;;;;;;;;13.30;67.10;;;;;;6079726;23;19933;-75
2022/11/16 13:56:01;;;;;;;;;;;13.40;66.90;;;;;;6095077;23;20503;-74
2022/11/16 13:58:29;;;;;;;;;;;13.40;66.80;;;;;;6070168;23;20281;-75
2022/11/16 14:01:02;;;;;;;;;;;13.30;66.90;;;;;;6097350;23;19905;-75
2022/11/16 14:03:37;;;;;;;;;;;13.30;67.30;;;;;;6097347;23;20232;-74
2022/11/16 14:06:07;;;;;;;;;;;13.30;67.10;;;;;;6072438;23;19928;-74
2022/11/16 14:08:36;;;;;;;;;;;13.30;67.00;;;;;;6096777;23;19909;-74
2022/11/16 14:11:02;;;;;;;;;;;13.30;66.80;;;;;;6096769;23;19953;-75
2022/11/16 14:13:35;;;;;;;;;;;13.30;66.90;;;;;;6071555;23;20237;-74
2022/11/16 14:16:18;;;;;;;;;;;13.30;67.30;;;;;;6096398;23;20361;-75
2022/11/16 14:19:04;;;;;;;;;;;13.20;67.40;;;;;;6096524;23;19909;-74
2022/11/16 14:21:36;;;;;;;;;;;13.20;68.00;;;;;;6096563;23;20364;-75
2022/11/16 14:24:15;;;;;;;;;;;13.20;68.30;;;;;;6097277;23;19952;-74
2022/11/16 14:26:44;;;;;;;;;;;13.20;68.10;;;;;;6097133;23;19905;-74
2022/11/16 14:29:29;;;;;;;;;;;13.10;68.20;;;;;;6072097;23;19913;-74
2022/11/16 14:31:56;;;;;;;;;;;13.10;68.40;;;;;;6096947;23;19912;-75
2022/11/16 14:34:29;;;;;;;;;;;13.10;69.00;;;;;;6097077;23;19905;-74
2022/11/16 14:36:55;;;;;;;;;;;13.00;68.50;;;;;;6097623;23;19906;-74
2022/11/16 14:39:36;;;;;;;;;;;13.10;68.70;;;;;;6071967;23;19912;-74
2022/11/16 14:42:04;;;;;;;;;;;13.10;69.00;;;;;;6096411;23;19961;-74
2022/11/16 14:44:35;;;;;;;;;;;13.10;69.30;;;;;;6096459;23;19920;-74
2022/11/16 14:47:02;;;;;;;;;;;13.10;69.60;;;;;;6072204;23;19909;-75
2022/11/16 14:49:28;;;;;;;;;;;13.00;69.80;;;;;;6097040;23;19910;-74
2022/11/16 14:51:56;;;;;;;;;;;13.00;69.50;;;;;;6096759;23;19945;-74
2022/11/16 14:54:29;;;;;;;;;;;13.00;69.50;;;;;;6096703;23;19913;-74
2022/11/16 14:56:59;;;;;;;;;;;13.00;69.60;;;;;;6097496;23;19964;-74
2022/11/16 14:59:26;;;;;;;;;;;13.00;69.60;;;;;;6097078;23;19965;-75
2022/11/16 15:01:52;;;;;;;;;;;13.00;70.00;;;;;;6097568;23;19952;-74
2022/11/16 15:04:20;;;;;;;;;;;13.00;69.30;;;;;;6096805;23;20000;-74
2022/11/16 15:06:54;;;;;;;;;;;13.00;70.20;;;;;;6097181;23;19909;-74
2022/11/16 15:24:56;;;;;;;;;;;13.00;69.00;;;;;;6124010;23;20044;-74
2022/11/16 15:27:39;;;;;;;;;;;13.10;68.50;;;;;;6139051;23;19928;-66
2022/11/16 15:30:12;;;;;;;;;;;13.10;68.10;;;;;;6129357;23;20221;-66
2022/11/16 15:32:42;;;;;;;;;;;13.10;67.90;;;;;;6155461;23;19911;-66
2022/11/16 15:35:18;;;;;;;;;;;13.20;67.30;;;;;;6129236;23;19905;-66
2022/11/16 15:37:44;;;;;;;;;;;13.20;67.60;;;;;;6155417;23;19915;-66
2022/11/16 15:40:11;;;;;;;;;;;13.10;67.50;;;;;;6154920;23;19904;-66
2022/11/16 15:42:38;;;;;;;;;;;13.10;67.40;;;;;;6155437;23;19905;-66
2022/11/16 15:45:08;;;;;;;;;;;13.10;68.50;;;;;;6155032;23;19912;-66
2022/11/16 15:47:35;;;;;;;;;;;13.00;68.00;;;;;;6154950;23;20279;-66
2022/11/16 15:50:02;;;;;;;;;;;13.00;67.60;;;;;;6154680;23;19905;-66
2022/11/16 15:52:42;;;;;;;;;;;13.00;67.70;;;;;;6129675;23;19911;-66
2022/11/16 15:55:22;;;;;;;;;;;13.00;68.50;;;;;;6154934;23;19975;-65
2022/11/16 15:57:59;;;;;;;;;;;13.00;68.30;;;;;;6155697;23;19912;-66
2022/11/16 16:00:26;;;;;;;;;;;13.00;68.50;;;;;;6155288;23;20224;-66
2022/11/16 16:02:54;;;;;;;;;;;12.90;69.00;;;;;;6155456;23;19909;-65
2022/11/16 16:05:37;;;;;;;;;;;12.90;68.50;;;;;;6128680;23;20298;-66
2022/11/16 16:08:04;;;;;;;;;;;12.90;69.10;;;;;;6155406;23;19905;-66
2022/11/16 16:10:31;;;;;;;;;;;12.80;68.90;;;;;;6129154;23;20291;-66
2022/11/16 16:12:58;;;;;;;;;;;12.80;68.70;;;;;;6154966;23;19928;-66
2022/11/16 16:15:29;;;;;;;;;;;12.80;68.90;;;;;;6154733;23;19908;-66
2022/11/16 16:17:56;;;;;;;;;;;12.80;68.80;;;;;;6154993;23;19911;-66
2022/11/16 16:20:23;;;;;;;;;;;12.80;68.70;;;;;;6128979;23;19915;-66
2022/11/16 16:22:50;;;;;;;;;;;12.80;69.10;;;;;;6128787;23;19960;-66
2022/11/16 16:25:43;;;;;;;;;;;12.80;68.80;;;;;;6128951;23;19952;-66
2022/11/16 16:28:10;;;;;;;;;;;12.80;69.00;;;;;;6148501;23;20362;-66
2022/11/16 16:30:38;;;;;;;;;;;12.70;69.40;;;;;;6154917;23;19911;-66
2022/11/16 16:33:04;;;;;;;;;;;12.70;69.40;;;;;;6128813;23;20039;-66
2022/11/16 16:35:31;;;;;;;;;;;12.70;69.50;;;;;;6154662;23;19904;-66
2022/11/16 16:37:58;;;;;;;;;;;12.70;69.40;;;;;;6154801;23;19901;-66
2022/11/16 16:40:25;;;;;;;;;;;12.70;69.30;;;;;;6154821;23;20217;-66
2022/11/16 16:42:52;;;;;;;;;;;12.70;69.70;;;;;;6153849;23;19912;-66
2022/11/16 16:45:20;;;;;;;;;;;12.70;69.90;;;;;;6154724;23;19913;-66
2022/11/16 16:47:47;;;;;;;;;;;12.70;69.90;;;;;;6154909;23;20283;-66
2022/11/16 16:50:13;;;;;;;;;;;12.70;69.80;;;;;;6154453;23;20382;-66
2022/11/16 16:52:41;;;;;;;;;;;12.70;70.00;;;;;;6155001;23;20343;-66
2022/11/16 16:55:08;;;;;;;;;;;12.70;70.20;;;;;;6154620;23;19932;-66
2022/11/16 16:57:35;;;;;;;;;;;12.70;70.20;;;;;;6155218;23;19911;-66
2022/11/16 17:00:02;;;;;;;;;;;12.70;70.30;;;;;;6154867;23;19975;-66
2022/11/16 17:02:30;;;;;;;;;;;12.70;69.80;;;;;;6154528;23;19975;-66
2022/11/16 17:04:57;;;;;;;;;;;12.70;69.80;;;;;;6154169;23;19917;-66
2022/11/16 17:07:24;;;;;;;;;;;12.60;70.50;;;;;;6128874;23;19905;-66
2022/11/16 17:09:51;;;;;;;;;;;12.50;70.90;;;;;;6154690;23;20329;-66
2022/11/16 17:12:18;;;;;;;;;;;12.50;71.80;;;;;;6154754;23;19912;-66
2022/11/16 17:14:51;;;;;;;;;;;12.50;71.40;;;;;;6154300;23;19911;-66
2022/11/16 17:17:18;;;;;;;;;;;12.50;72.10;;;;;;6154787;23;20239;-66
2022/11/16 17:19:48;;;;;;;;;;;12.40;72.10;;;;;;6154507;23;19945;-65
2022/11/16 17:22:19;;;;;;;;;;;12.40;72.10;;;;;;6154529;23;19968;-66
2022/11/16 17:24:45;;;;;;;;;;;12.40;72.60;;;;;;6128654;23;20010;-66
2022/11/16 17:27:13;;;;;;;;;;;12.30;72.40;;;;;;6128958;23;19988;-66
2022/11/16 17:29:40;;;;;;;;;;;12.30;72.10;;;;;;6154238;23;19904;-66
2022/11/16 17:32:07;;;;;;;;;;;12.20;72.00;;;;;;6154339;23;19912;-66
2022/11/16 17:34:36;;;;;;;;;;;12.20;72.80;;;;;;6155343;23;20043;-66
2022/11/16 17:37:03;;;;;;;;;;;12.20;72.80;;;;;;6156140;23;19908;-66
2022/11/16 17:39:31;;;;;;;;;;;12.20;72.70;;;;;;6156310;23;19928;-66
2022/11/16 17:41:58;;;;;;;;;;;12.20;73.30;;;;;;6155166;23;19975;-66
2022/11/16 17:44:25;;;;;;;;;;;12.20;72.70;;;;;;6156094;23;19916;-66
2022/11/16 17:46:52;;;;;;;;;;;12.20;73.30;;;;;;6156739;23;19912;-66
2022/11/16 17:49:19;;;;;;;;;;;12.10;72.50;;;;;;6156576;23;19968;-66
2022/11/16 17:51:46;;;;;;;;;;;12.10;73.30;;;;;;6156733;23;19988;-66
2022/11/16 17:54:13;;;;;;;;;;;12.10;72.90;;;;;;6156500;23;19905;-66
2022/11/16 17:56:40;;;;;;;;;;;12.10;73.10;;;;;;6156733;23;19905;-66
2022/11/16 17:59:07;;;;;;;;;;;12.10;73.30;;;;;;6156775;23;19927;-66
2022/11/16 18:01:34;;;;;;;;;;;12.00;73.80;;;;;;6156355;23;19940;-66
2022/11/16 18:04:01;;;;;;;;;;;12.00;73.50;;;;;;6156155;23;20024;-66
2022/11/16 18:06:28;;;;;;;;;;;12.00;74.20;;;;;;6155959;23;19911;-66
2022/11/16 18:08:56;;;;;;;;;;;12.00;74.00;;;;;;6156266;23;20239;-66
2022/11/16 18:11:23;;;;;;;;;;;12.00;73.40;;;;;;6156083;23;19912;-66
2022/11/16 18:13:53;;;;;;;;;;;12.00;73.20;;;;;;6155953;23;19963;-67
2022/11/16 18:16:20;;;;;;;;;;;12.10;73.70;;;;;;6156451;23;19928;-65
2022/11/16 18:18:47;;;;;;;;;;;12.00;73.70;;;;;;6156317;23;19980;-65
2022/11/16 18:21:14;;;;;;;;;;;12.00;74.00;;;;;;6155632;23;19911;-66
2022/11/16 18:23:41;;;;;;;;;;;12.00;74.00;;;;;;6153554;23;19912;-65
2022/11/16 18:26:08;;;;;;;;;;;12.00;73.50;;;;;;6156045;23;19912;-66
2022/11/16 18:28:35;;;;;;;;;;;12.00;74.70;;;;;;6155041;23;19920;-65
2022/11/16 18:31:05;;;;;;;;;;;12.00;74.30;;;;;;6154765;23;19905;-65
2022/11/16 18:33:32;;;;;;;;;;;12.00;73.80;;;;;;6129393;23;19979;-66
2022/11/16 18:35:58;;;;;;;;;;;12.00;73.50;;;;;;6155448;23;19904;-66
2022/11/16 18:38:25;;;;;;;;;;;12.00;73.50;;;;;;6130071;23;19912;-65
2022/11/16 18:41:10;;;;;;;;;;;11.90;73.70;;;;;;6155919;23;19911;-65
2022/11/16 18:43:48;;;;;;;;;;;11.90;74.00;;;;;;6155866;23;19935;-66
2022/11/16 18:46:14;;;;;;;;;;;11.90;75.10;;;;;;6155822;23;20287;-66
2022/11/16 18:48:42;;;;;;;;;;;11.90;74.50;;;;;;6156028;23;19904;-65
2022/11/16 18:51:08;;;;;;;;;;;11.90;75.30;;;;;;6155979;23;19904;-65
2022/11/16 18:53:35;;;;;;;;;;;11.90;75.00;;;;;;6155399;23;19908;-65
2022/11/16 18:56:02;;;;;;;;;;;11.90;74.90;;;;;;6156014;23;20383;-65
2022/11/16 18:58:28;;;;;;;;;;;11.90;75.30;;;;;;6155606;23;19905;-65
2022/11/16 19:00:59;;;;;;;;;;;11.90;75.50;;;;;;6156104;23;19904;-65
2022/11/16 19:03:26;;;;;;;;;;;11.90;75.40;;;;;;6155512;23;20316;-65
2022/11/16 19:05:56;;;;;;;;;;;11.90;75.50;;;;;;6155941;23;19916;-65
2022/11/16 19:08:23;;;;;;;;;;;12.00;75.10;;;;;;6129765;23;19905;-65
2022/11/16 19:10:49;;;;;;;;;;;12.00;75.10;;;;;;6155704;23;19904;-66
2022/11/16 19:13:16;;;;;;;;;;;12.10;75.10;;;;;;6155467;23;20236;-65
2022/11/16 19:15:43;;;;;;;;;;;12.10;74.50;;;;;;6155815;23;19905;-65
2022/11/16 19:18:09;;;;;;;;;;;12.20;74.30;;;;;;6155678;23;19996;-65
2022/11/16 19:20:36;;;;;;;;;;;12.30;74.20;;;;;;6155240;23;20391;-65
2022/11/16 19:23:02;;;;;;;;;;;12.40;74.00;;;;;;6155464;23;19980;-66
2022/11/16 19:25:29;;;;;;;;;;;12.50;73.80;;;;;;6154279;23;20325;-65
2022/11/16 19:27:56;;;;;;;;;;;12.60;73.80;;;;;;6155641;23;19936;-65
2022/11/16 19:30:22;;;;;;;;;;;12.70;73.40;;;;;;6155750;23;20339;-65
2022/11/16 19:32:49;;;;;;;;;;;12.70;73.10;;;;;;6129382;23;19920;-65
2022/11/16 19:35:15;;;;;;;;;;;12.80;72.40;;;;;;6129688;23;19905;-65
2022/11/16 19:37:42;;;;;;;;;;;12.80;72.30;;;;;;6155769;23;19993;-64
2022/11/16 19:40:09;;;;;;;;;;;12.90;72.40;;;;;;6154725;23;20000;-65
2022/11/16 19:42:36;;;;;;;;;;;13.00;72.40;;;;;;6155318;23;19983;-64
2022/11/16 19:45:02;;;;;;;;;;;13.00;72.30;;;;;;6155423;23;19968;-64
2022/11/16 19:47:29;;;;;;;;;;;13.00;72.10;;;;;;6155051;23;19971;-64
2022/11/16 19:49:56;;;;;;;;;;;13.00;71.80;;;;;;6155306;23;19904;-66
2022/11/16 19:52:22;;;;;;;;;;;13.00;71.80;;;;;;6154763;23;19912;-65
2022/11/16 19:54:49;;;;;;;;;;;13.00;71.90;;;;;;6155119;23;20283;-65
2022/11/16 19:57:19;;;;;;;;;;;13.10;71.80;;;;;;6154685;23;19979;-65
2022/11/16 19:59:46;;;;;;;;;;;13.20;71.50;;;;;;6154939;23;19928;-66
2022/11/16 20:02:13;;;;;;;;;;;13.20;71.80;;;;;;6155034;23;19912;-65
2022/11/16 20:04:39;;;;;;;;;;;13.30;71.50;;;;;;6155027;23;19909;-65
2022/11/16 20:07:06;;;;;;;;;;;13.30;71.30;;;;;;6155298;23;19905;-65
2022/11/16 20:09:33;;;;;;;;;;;13.40;71.10;;;;;;6154336;23;19915;-66
2022/11/16 20:11:59;;;;;;;;;;;13.40;70.90;;;;;;6154746;23;19951;-65
2022/11/16 20:14:26;;;;;;;;;;;13.40;70.70;;;;;;6154882;23;19939;-67
2022/11/16 20:16:52;;;;;;;;;;;13.50;70.60;;;;;;6154312;23;20305;-66
2022/11/16 20:19:19;;;;;;;;;;;13.60;70.20;;;;;;6153995;23;20436;-66
2022/11/16 20:21:46;;;;;;;;;;;13.60;70.10;;;;;;6154372;23;19908;-66
2022/11/16 20:24:13;;;;;;;;;;;13.70;70.10;;;;;;6154370;23;19912;-66
2022/11/16 20:26:44;;;;;;;;;;;13.70;69.90;;;;;;6153985;23;19927;-67
2022/11/16 20:29:13;;;;;;;;;;;13.80;69.20;;;;;;6154092;23;20351;-66
2022/11/16 20:31:41;;;;;;;;;;;13.80;68.60;;;;;;6154877;23;19904;-67
2022/11/16 20:34:12;;;;;;;;;;;13.80;68.10;;;;;;6151855;23;19930;-67
2022/11/16 20:36:40;;;;;;;;;;;13.90;68.10;;;;;;6153342;23;20280;-67
2022/11/16 20:39:07;;;;;;;;;;;14.00;68.30;;;;;;6153960;23;20355;-67
2022/11/16 20:41:33;;;;;;;;;;;14.10;68.00;;;;;;6128766;23;20284;-67
2022/11/16 20:44:01;;;;;;;;;;;14.10;67.60;;;;;;6154821;23;20004;-67
2022/11/16 20:46:28;;;;;;;;;;;14.20;67.60;;;;;;6154521;23;19908;-67
2022/11/16 20:48:55;;;;;;;;;;;14.20;67.00;;;;;;6128823;23;19904;-67
2022/11/16 20:51:22;;;;;;;;;;;14.30;67.20;;;;;;6154793;23;19908;-66
2022/11/16 20:53:49;;;;;;;;;;;14.40;66.10;;;;;;6154834;23;19940;-67
2022/11/16 20:56:16;;;;;;;;;;;14.50;66.40;;;;;;6128712;23;19905;-67
2022/11/16 20:58:42;;;;;;;;;;;14.60;65.30;;;;;;6154661;23;20244;-67
2022/11/16 21:01:30;;;;;;;;;;;14.70;65.30;;;;;;6154913;23;19904;-66
2022/11/16 21:04:00;;;;;;;;;;;14.80;64.40;;;;;;6153393;23;19951;-67
2022/11/16 21:06:27;;;;;;;;;;;15.10;64.70;;;;;;6153949;23;19920;-67
2022/11/16 21:08:54;;;;;;;;;;;15.20;64.10;;;;;;6154389;23;19905;-67
2022/11/16 21:11:24;;;;;;;;;;;15.30;63.90;;;;;;6154397;23;19959;-67
2022/11/16 21:16:35;;;;;;;;;;;15.30;64.00;;;;;;6154739;23;19912;-69
2022/11/16 21:19:02;;;;;;;;;;;15.20;63.30;;;;;;6153812;23;19905;-69
2022/11/16 21:21:28;;;;;;;;;;;15.30;63.10;;;;;;6153608;23;19905;-69
2022/11/16 21:23:55;;;;;;;;;;;15.30;63.90;;;;;;6154089;23;19980;-69
2022/11/16 21:26:25;;;;;;;;;;;15.50;63.40;;;;;;6155245;23;20280;-69
2022/11/16 21:28:52;;;;;;;;;;;15.50;63.20;;;;;;6154674;23;19917;-69
2022/11/16 21:31:20;;;;;;;;;;;15.60;63.10;;;;;;6154591;23;20333;-69
2022/11/16 21:33:47;;;;;;;;;;;15.70;61.90;;;;;;6154721;23;19905;-69
2022/11/16 21:36:14;;;;;;;;;;;15.80;62.20;;;;;;6154121;23;19904;-69
2022/11/16 21:38:41;;;;;;;;;;;16.10;62.90;;;;;;6154458;23;19905;-69
2022/11/16 21:41:08;;;;;;;;;;;16.10;61.50;;;;;;6153899;23;19971;-69
2022/11/16 21:43:35;;;;;;;;;;;16.20;59.50;;;;;;6153562;23;20209;-69
2022/11/16 21:46:02;;;;;;;;;;;16.20;60.60;;;;;;6154232;23;20248;-69
2022/11/16 21:48:32;;;;;;;;;;;16.30;60.70;;;;;;6154834;23;19904;-69
2022/11/16 21:51:02;;;;;;;;;;;16.20;60.90;;;;;;6154607;23;19905;-69
2022/11/16 21:53:29;;;;;;;;;;;16.20;59.50;;;;;;6154853;23;19987;-69
2022/11/16 21:55:56;;;;;;;;;;;16.30;61.00;;;;;;6154680;23;19908;-69
2022/11/16 21:58:22;;;;;;;;;;;16.30;59.80;;;;;;6128791;23;20375;-69
2022/11/16 22:00:49;;;;;;;;;;;16.30;59.80;;;;;;6128712;23;19916;-69
2022/11/16 22:03:15;;;;;;;;;;;16.40;60.00;;;;;;6154456;23;19928;-69
2022/11/16 22:08:27;;;;;;;;;;;16.50;59.80;;;;;;6154569;23;19960;-69
2022/11/16 22:10:53;;;;;;;;;;;16.50;58.60;;;;;;6154376;23;20215;-69
2022/11/16 22:13:20;;;;;;;;;;;16.60;58.80;;;;;;6154459;23;19948;-69
2022/11/16 22:15:47;;;;;;;;;;;16.60;58.30;;;;;;6154459;23;19905;-69
2022/11/16 22:18:13;;;;;;;;;;;16.70;58.70;;;;;;6153939;23;19911;-69
2022/11/16 22:20:40;;;;;;;;;;;16.70;58.00;;;;;;6155683;23;20321;-69
2022/11/16 22:23:06;;;;;;;;;;;16.70;58.40;;;;;;6156520;23;20324;-69
2022/11/16 22:25:33;;;;;;;;;;;16.80;58.00;;;;;;6156326;23;19913;-69
2022/11/16 22:28:00;;;;;;;;;;;16.90;57.00;;;;;;6156205;23;20395;-69
2022/11/16 22:30:26;;;;;;;;;;;17.10;57.00;;;;;;6155994;23;19956;-70
2022/11/16 22:32:53;;;;;;;;;;;17.20;55.00;;;;;;6156669;23;19914;-69
2022/11/16 22:35:19;;;;;;;;;;;17.20;55.20;;;;;;6154278;23;19909;-68
2022/11/16 22:37:46;;;;;;;;;;;17.10;56.10;;;;;;6155329;23;20355;-69
2022/11/16 22:40:13;;;;;;;;;;;16.90;56.00;;;;;;6155656;23;19905;-69
2022/11/16 22:42:39;;;;;;;;;;;16.80;56.10;;;;;;6154301;23;19905;-69
2022/11/16 22:45:06;;;;;;;;;;;16.90;56.20;;;;;;6154142;23;20343;-69